sensor_id;sensor_type;location;lat;lon;timestamp;P1;durP1;ratioP1;P2;durP2;ratioP2
5022;SDS011;2530;47.990;7.866;2023-05-07T00:01:23;3.70;;;3.27;;
5022;SDS011;2530;47.990;7.866;2023-05-07T00:03:49;4.47;;;3.40;;
5022;SDS011;2530;47.990;7.866;2023-05-07T00:06:14;3.30;;;3.00;;
5022;SDS011;2530;47.990;7.866;2023-05-07T00:08:40;3.53;;;3.23;;
5022;SDS011;2530;47.990;7.866;2023-05-07T00:11:05;4.00;;;3.00;;
5022;SDS011;2530;47.990;7.866;2023-05-07T00:13:31;4.65;;;3.20;;
5022;SDS011;2530;47.990;7.866;2023-05-07T00:16:00;4.10;;;3.72;;
5022;SDS011;2530;47.990;7.866;2023-05-07T00:18:26;17.75;;;3.97;;
5022;SDS011;2530;47.990;7.866;2023-05-07T00:20:52;3.03;;;2.83;;
5022;SDS011;2530;47.990;7.866;2023-05-07T00:23:17;4.50;;;3.13;;
5022;SDS011;2530;47.990;7.866;2023-05-07T00:25:43;4.90;;;3.40;;
5022;SDS011;2530;47.990;7.866;2023-05-07T00:28:08;5.78;;;3.78;;
5022;SDS011;2530;47.990;7.866;2023-05-07T00:30:34;5.17;;;3.40;;
5022;SDS011;2530;47.990;7.866;2023-05-07T00:32:59;4.20;;;3.50;;
5022;SDS011;2530;47.990;7.866;2023-05-07T00:35:25;3.80;;;3.40;;
5022;SDS011;2530;47.990;7.866;2023-05-07T00:37:51;3.92;;;3.50;;
5022;SDS011;2530;47.990;7.866;2023-05-07T00:40:16;4.30;;;3.30;;
5022;SDS011;2530;47.990;7.866;2023-05-07T00:42:42;4.93;;;3.30;;
5022;SDS011;2530;47.990;7.866;2023-05-07T00:45:11;4.20;;;3.47;;
5022;SDS011;2530;47.990;7.866;2023-05-07T00:47:40;3.55;;;3.25;;
5022;SDS011;2530;47.990;7.866;2023-05-07T00:50:07;3.97;;;3.57;;
5022;SDS011;2530;47.990;7.866;2023-05-07T00:52:34;3.38;;;3.08;;
5022;SDS011;2530;47.990;7.866;2023-05-07T00:55:01;5.22;;;3.10;;
5022;SDS011;2530;47.990;7.866;2023-05-07T00:57:32;4.13;;;3.40;;
5022;SDS011;2530;47.990;7.866;2023-05-07T01:00:02;5.43;;;3.50;;
5022;SDS011;2530;47.990;7.866;2023-05-07T01:02:29;3.50;;;3.20;;
5022;SDS011;2530;47.990;7.866;2023-05-07T01:04:55;3.63;;;3.33;;
5022;SDS011;2530;47.990;7.866;2023-05-07T01:07:21;3.50;;;3.20;;
5022;SDS011;2530;47.990;7.866;2023-05-07T01:09:48;7.55;;;3.80;;
5022;SDS011;2530;47.990;7.866;2023-05-07T01:12:14;4.50;;;3.23;;
5022;SDS011;2530;47.990;7.866;2023-05-07T01:14:40;3.80;;;3.00;;
5022;SDS011;2530;47.990;7.866;2023-05-07T01:17:06;3.88;;;3.40;;
5022;SDS011;2530;47.990;7.866;2023-05-07T01:19:33;3.88;;;3.22;;
5022;SDS011;2530;47.990;7.866;2023-05-07T01:22:02;3.50;;;3.20;;
5022;SDS011;2530;47.990;7.866;2023-05-07T01:24:32;3.50;;;3.13;;
5022;SDS011;2530;47.990;7.866;2023-05-07T01:26:58;5.30;;;3.10;;
5022;SDS011;2530;47.990;7.866;2023-05-07T01:29:23;3.40;;;3.10;;
5022;SDS011;2530;47.990;7.866;2023-05-07T01:31:49;3.43;;;3.13;;
5022;SDS011;2530;47.990;7.866;2023-05-07T01:34:16;4.72;;;3.58;;
5022;SDS011;2530;47.990;7.866;2023-05-07T01:36:43;3.85;;;3.45;;
5022;SDS011;2530;47.990;7.866;2023-05-07T01:39:09;4.97;;;3.40;;
5022;SDS011;2530;47.990;7.866;2023-05-07T01:41:36;4.32;;;3.30;;
5022;SDS011;2530;47.990;7.866;2023-05-07T01:44:02;3.00;;;2.70;;
5022;SDS011;2530;47.990;7.866;2023-05-07T01:46:30;3.57;;;3.00;;
5022;SDS011;2530;47.990;7.866;2023-05-07T01:48:57;4.30;;;3.30;;
5022;SDS011;2530;47.990;7.866;2023-05-07T01:51:23;4.75;;;3.53;;
5022;SDS011;2530;47.990;7.866;2023-05-07T01:53:49;3.55;;;3.25;;
5022;SDS011;2530;47.990;7.866;2023-05-07T01:56:16;3.85;;;3.40;;
5022;SDS011;2530;47.990;7.866;2023-05-07T01:58:43;4.40;;;3.70;;
5022;SDS011;2530;47.990;7.866;2023-05-07T02:01:12;5.40;;;3.80;;
5022;SDS011;2530;47.990;7.866;2023-05-07T02:03:38;3.80;;;3.50;;
5022;SDS011;2530;47.990;7.866;2023-05-07T02:06:04;4.20;;;3.80;;
5022;SDS011;2530;47.990;7.866;2023-05-07T02:08:30;4.70;;;3.58;;
5022;SDS011;2530;47.990;7.866;2023-05-07T02:10:55;4.28;;;3.40;;
5022;SDS011;2530;47.990;7.866;2023-05-07T02:13:21;4.43;;;4.03;;
5022;SDS011;2530;47.990;7.866;2023-05-07T02:15:47;4.38;;;3.40;;
5022;SDS011;2530;47.990;7.866;2023-05-07T02:18:15;4.65;;;3.20;;
5022;SDS011;2530;47.990;7.866;2023-05-07T02:20:41;3.60;;;3.33;;
5022;SDS011;2530;47.990;7.866;2023-05-07T02:23:07;4.47;;;3.23;;
5022;SDS011;2530;47.990;7.866;2023-05-07T02:25:32;7.30;;;4.20;;
5022;SDS011;2530;47.990;7.866;2023-05-07T02:27:58;3.95;;;3.00;;
5022;SDS011;2530;47.990;7.866;2023-05-07T02:30:24;3.78;;;3.38;;
5022;SDS011;2530;47.990;7.866;2023-05-07T02:32:50;3.50;;;3.20;;
5022;SDS011;2530;47.990;7.866;2023-05-07T02:35:15;3.50;;;3.20;;
5022;SDS011;2530;47.990;7.866;2023-05-07T02:37:41;6.85;;;3.42;;
5022;SDS011;2530;47.990;7.866;2023-05-07T02:40:07;4.10;;;3.70;;
5022;SDS011;2530;47.990;7.866;2023-05-07T02:42:33;4.00;;;3.40;;
5022;SDS011;2530;47.990;7.866;2023-05-07T02:44:58;4.67;;;3.33;;
5022;SDS011;2530;47.990;7.866;2023-05-07T02:47:24;3.60;;;3.30;;
5022;SDS011;2530;47.990;7.866;2023-05-07T02:49:52;3.30;;;3.00;;
5022;SDS011;2530;47.990;7.866;2023-05-07T02:52:18;5.00;;;3.60;;
5022;SDS011;2530;47.990;7.866;2023-05-07T02:54:43;3.83;;;3.53;;
5022;SDS011;2530;47.990;7.866;2023-05-07T02:57:09;3.70;;;3.40;;
5022;SDS011;2530;47.990;7.866;2023-05-07T02:59:35;4.50;;;3.30;;
5022;SDS011;2530;47.990;7.866;2023-05-07T03:02:00;3.67;;;3.33;;
5022;SDS011;2530;47.990;7.866;2023-05-07T03:04:26;3.83;;;3.42;;
5022;SDS011;2530;47.990;7.866;2023-05-07T03:06:51;3.90;;;3.00;;
5022;SDS011;2530;47.990;7.866;2023-05-07T03:09:17;5.37;;;3.50;;
5022;SDS011;2530;47.990;7.866;2023-05-07T03:11:42;4.78;;;2.90;;
5022;SDS011;2530;47.990;7.866;2023-05-07T03:14:08;4.30;;;3.00;;
5022;SDS011;2530;47.990;7.866;2023-05-07T03:16:33;3.50;;;3.20;;
5022;SDS011;2530;47.990;7.866;2023-05-07T03:18:59;3.97;;;2.87;;
5022;SDS011;2530;47.990;7.866;2023-05-07T03:21:25;5.10;;;2.80;;
5022;SDS011;2530;47.990;7.866;2023-05-07T03:23:51;5.07;;;3.50;;
5022;SDS011;2530;47.990;7.866;2023-05-07T03:26:16;3.30;;;2.70;;
5022;SDS011;2530;47.990;7.866;2023-05-07T03:28:42;3.30;;;3.00;;
5022;SDS011;2530;47.990;7.866;2023-05-07T03:31:08;4.10;;;3.33;;
5022;SDS011;2530;47.990;7.866;2023-05-07T03:33:33;5.95;;;4.10;;
5022;SDS011;2530;47.990;7.866;2023-05-07T03:36:00;6.13;;;3.65;;
5022;SDS011;2530;47.990;7.866;2023-05-07T03:38:26;4.75;;;3.45;;
5022;SDS011;2530;47.990;7.866;2023-05-07T03:40:51;5.50;;;3.70;;
5022;SDS011;2530;47.990;7.866;2023-05-07T03:43:17;3.40;;;3.10;;
5022;SDS011;2530;47.990;7.866;2023-05-07T03:45:42;4.57;;;4.10;;
5022;SDS011;2530;47.990;7.866;2023-05-07T03:48:08;3.80;;;3.35;;
5022;SDS011;2530;47.990;7.866;2023-05-07T03:50:33;3.50;;;3.10;;
5022;SDS011;2530;47.990;7.866;2023-05-07T03:52:59;3.90;;;3.60;;
5022;SDS011;2530;47.990;7.866;2023-05-07T03:55:25;4.17;;;3.70;;
5022;SDS011;2530;47.990;7.866;2023-05-07T03:57:50;4.50;;;3.70;;
5022;SDS011;2530;47.990;7.866;2023-05-07T04:00:16;4.70;;;3.80;;
5022;SDS011;2530;47.990;7.866;2023-05-07T04:02:41;4.47;;;3.75;;
5022;SDS011;2530;47.990;7.866;2023-05-07T04:05:07;4.20;;;3.80;;
5022;SDS011;2530;47.990;7.866;2023-05-07T04:07:33;3.70;;;3.30;;
5022;SDS011;2530;47.990;7.866;2023-05-07T04:09:58;4.30;;;3.53;;
5022;SDS011;2530;47.990;7.866;2023-05-07T04:12:24;4.30;;;3.87;;
5022;SDS011;2530;47.990;7.866;2023-05-07T04:14:49;4.40;;;4.00;;
5022;SDS011;2530;47.990;7.866;2023-05-07T04:17:15;4.10;;;3.80;;
5022;SDS011;2530;47.990;7.866;2023-05-07T04:19:40;4.20;;;3.60;;
5022;SDS011;2530;47.990;7.866;2023-05-07T04:22:10;3.80;;;3.40;;
5022;SDS011;2530;47.990;7.866;2023-05-07T04:24:37;4.70;;;3.70;;
5022;SDS011;2530;47.990;7.866;2023-05-07T04:27:02;7.00;;;3.90;;
5022;SDS011;2530;47.990;7.866;2023-05-07T04:29:28;4.45;;;3.83;;
5022;SDS011;2530;47.990;7.866;2023-05-07T04:31:54;3.80;;;3.40;;
5022;SDS011;2530;47.990;7.866;2023-05-07T04:34:21;4.88;;;3.53;;
5022;SDS011;2530;47.990;7.866;2023-05-07T04:36:46;5.97;;;4.00;;
5022;SDS011;2530;47.990;7.866;2023-05-07T04:39:13;4.82;;;4.15;;
5022;SDS011;2530;47.990;7.866;2023-05-07T04:41:38;3.55;;;3.25;;
5022;SDS011;2530;47.990;7.866;2023-05-07T04:44:04;4.80;;;3.60;;
5022;SDS011;2530;47.990;7.866;2023-05-07T04:46:30;4.25;;;3.90;;
5022;SDS011;2530;47.990;7.866;2023-05-07T04:48:56;4.70;;;4.17;;
5022;SDS011;2530;47.990;7.866;2023-05-07T04:51:21;4.10;;;3.60;;
5022;SDS011;2530;47.990;7.866;2023-05-07T04:53:47;6.65;;;3.70;;
5022;SDS011;2530;47.990;7.866;2023-05-07T04:56:13;4.70;;;3.70;;
5022;SDS011;2530;47.990;7.866;2023-05-07T04:58:39;4.60;;;3.80;;
5022;SDS011;2530;47.990;7.866;2023-05-07T05:01:04;4.10;;;3.70;;
5022;SDS011;2530;47.990;7.866;2023-05-07T05:03:30;4.50;;;4.10;;
5022;SDS011;2530;47.990;7.866;2023-05-07T05:05:56;4.27;;;3.50;;
5022;SDS011;2530;47.990;7.866;2023-05-07T05:08:24;4.20;;;3.80;;
5022;SDS011;2530;47.990;7.866;2023-05-07T05:10:49;3.80;;;3.40;;
5022;SDS011;2530;47.990;7.866;2023-05-07T05:13:15;4.00;;;3.70;;
5022;SDS011;2530;47.990;7.866;2023-05-07T05:15:41;5.30;;;3.75;;
5022;SDS011;2530;47.990;7.866;2023-05-07T05:18:06;5.00;;;3.57;;
5022;SDS011;2530;47.990;7.866;2023-05-07T05:20:32;4.20;;;3.80;;
5022;SDS011;2530;47.990;7.866;2023-05-07T05:22:57;4.35;;;3.95;;
5022;SDS011;2530;47.990;7.866;2023-05-07T05:25:23;4.70;;;4.30;;
5022;SDS011;2530;47.990;7.866;2023-05-07T05:27:48;4.10;;;3.70;;
5022;SDS011;2530;47.990;7.866;2023-05-07T05:30:14;4.18;;;3.88;;
5022;SDS011;2530;47.990;7.866;2023-05-07T05:32:39;3.60;;;3.30;;
5022;SDS011;2530;47.990;7.866;2023-05-07T05:35:05;3.57;;;3.33;;
5022;SDS011;2530;47.990;7.866;2023-05-07T05:37:31;6.10;;;3.70;;
5022;SDS011;2530;47.990;7.866;2023-05-07T05:39:56;4.03;;;3.60;;
5022;SDS011;2530;47.990;7.866;2023-05-07T05:42:22;4.43;;;3.83;;
5022;SDS011;2530;47.990;7.866;2023-05-07T05:44:48;4.45;;;4.05;;
5022;SDS011;2530;47.990;7.866;2023-05-07T05:47:14;4.30;;;3.90;;
5022;SDS011;2530;47.990;7.866;2023-05-07T05:49:39;4.60;;;3.87;;
5022;SDS011;2530;47.990;7.866;2023-05-07T05:52:05;3.93;;;3.63;;
5022;SDS011;2530;47.990;7.866;2023-05-07T05:54:30;4.70;;;3.80;;
5022;SDS011;2530;47.990;7.866;2023-05-07T05:56:56;5.30;;;3.57;;
5022;SDS011;2530;47.990;7.866;2023-05-07T05:59:21;4.40;;;3.30;;
5022;SDS011;2530;47.990;7.866;2023-05-07T06:01:47;3.70;;;3.40;;
5022;SDS011;2530;47.990;7.866;2023-05-07T06:04:13;3.83;;;3.40;;
5022;SDS011;2530;47.990;7.866;2023-05-07T06:06:38;3.42;;;3.13;;
5022;SDS011;2530;47.990;7.866;2023-05-07T06:09:04;3.30;;;3.00;;
5022;SDS011;2530;47.990;7.866;2023-05-07T06:11:30;3.20;;;2.90;;
5022;SDS011;2530;47.990;7.866;2023-05-07T06:13:57;3.97;;;3.10;;
5022;SDS011;2530;47.990;7.866;2023-05-07T06:16:22;3.53;;;3.23;;
5022;SDS011;2530;47.990;7.866;2023-05-07T06:18:49;3.50;;;3.20;;
5022;SDS011;2530;47.990;7.866;2023-05-07T06:21:15;3.60;;;3.30;;
5022;SDS011;2530;47.990;7.866;2023-05-07T06:23:41;4.00;;;3.60;;
5022;SDS011;2530;47.990;7.866;2023-05-07T06:26:06;3.97;;;3.10;;
5022;SDS011;2530;47.990;7.866;2023-05-07T06:28:32;4.30;;;3.33;;
5022;SDS011;2530;47.990;7.866;2023-05-07T06:31:16;4.60;;;3.73;;
5022;SDS011;2530;47.990;7.866;2023-05-07T06:33:47;4.65;;;3.60;;
5022;SDS011;2530;47.990;7.866;2023-05-07T06:36:13;4.90;;;3.92;;
5022;SDS011;2530;47.990;7.866;2023-05-07T06:38:38;4.60;;;4.20;;
5022;SDS011;2530;47.990;7.866;2023-05-07T06:41:05;5.00;;;4.00;;
5022;SDS011;2530;47.990;7.866;2023-05-07T06:43:31;4.78;;;4.28;;
5022;SDS011;2530;47.990;7.866;2023-05-07T06:45:56;5.22;;;4.55;;
5022;SDS011;2530;47.990;7.866;2023-05-07T06:48:22;4.55;;;4.10;;
5022;SDS011;2530;47.990;7.866;2023-05-07T06:50:48;5.20;;;4.20;;
5022;SDS011;2530;47.990;7.866;2023-05-07T06:53:13;4.33;;;3.93;;
5022;SDS011;2530;47.990;7.866;2023-05-07T06:55:39;5.45;;;4.07;;
5022;SDS011;2530;47.990;7.866;2023-05-07T06:58:04;5.23;;;4.77;;
5022;SDS011;2530;47.990;7.866;2023-05-07T07:00:30;4.88;;;4.20;;
5022;SDS011;2530;47.990;7.866;2023-05-07T07:02:56;4.67;;;4.20;;
5022;SDS011;2530;47.990;7.866;2023-05-07T07:05:22;4.20;;;3.90;;
5022;SDS011;2530;47.990;7.866;2023-05-07T07:07:48;4.10;;;3.70;;
5022;SDS011;2530;47.990;7.866;2023-05-07T07:10:22;4.78;;;4.10;;
5022;SDS011;2530;47.990;7.866;2023-05-07T07:12:48;4.40;;;3.60;;
5022;SDS011;2530;47.990;7.866;2023-05-07T07:15:14;5.70;;;4.05;;
5022;SDS011;2530;47.990;7.866;2023-05-07T07:17:40;7.00;;;4.07;;
5022;SDS011;2530;47.990;7.866;2023-05-07T07:20:06;4.00;;;3.60;;
5022;SDS011;2530;47.990;7.866;2023-05-07T07:22:32;5.00;;;4.55;;
5022;SDS011;2530;47.990;7.866;2023-05-07T07:24:57;4.88;;;4.28;;
5022;SDS011;2530;47.990;7.866;2023-05-07T07:27:23;4.40;;;4.00;;
5022;SDS011;2530;47.990;7.866;2023-05-07T07:29:49;4.40;;;4.00;;
5022;SDS011;2530;47.990;7.866;2023-05-07T07:32:14;4.72;;;4.32;;
5022;SDS011;2530;47.990;7.866;2023-05-07T07:34:40;5.22;;;4.10;;
5022;SDS011;2530;47.990;7.866;2023-05-07T07:37:05;4.40;;;4.00;;
5022;SDS011;2530;47.990;7.866;2023-05-07T07:39:31;4.43;;;4.03;;
5022;SDS011;2530;47.990;7.866;2023-05-07T07:41:57;5.10;;;3.60;;
5022;SDS011;2530;47.990;7.866;2023-05-07T07:44:23;4.77;;;4.27;;
5022;SDS011;2530;47.990;7.866;2023-05-07T07:46:48;5.53;;;4.30;;
5022;SDS011;2530;47.990;7.866;2023-05-07T07:49:14;4.30;;;3.90;;
5022;SDS011;2530;47.990;7.866;2023-05-07T07:51:40;4.80;;;4.20;;
5022;SDS011;2530;47.990;7.866;2023-05-07T07:54:05;4.20;;;3.80;;
5022;SDS011;2530;47.990;7.866;2023-05-07T07:56:34;4.10;;;3.70;;
5022;SDS011;2530;47.990;7.866;2023-05-07T07:59:00;3.90;;;3.60;;
5022;SDS011;2530;47.990;7.866;2023-05-07T08:01:25;4.00;;;3.70;;
5022;SDS011;2530;47.990;7.866;2023-05-07T08:03:51;4.67;;;4.20;;
5022;SDS011;2530;47.990;7.866;2023-05-07T08:06:17;4.15;;;3.85;;
5022;SDS011;2530;47.990;7.866;2023-05-07T08:08:42;4.30;;;4.00;;
5022;SDS011;2530;47.990;7.866;2023-05-07T08:11:08;4.77;;;4.27;;
5022;SDS011;2530;47.990;7.866;2023-05-07T08:13:34;4.37;;;3.97;;
5022;SDS011;2530;47.990;7.866;2023-05-07T08:16:00;4.73;;;4.30;;
5022;SDS011;2530;47.990;7.866;2023-05-07T08:18:25;5.63;;;4.85;;
5022;SDS011;2530;47.990;7.866;2023-05-07T08:20:53;8.05;;;4.07;;
5022;SDS011;2530;47.990;7.866;2023-05-07T08:23:18;5.00;;;4.37;;
5022;SDS011;2530;47.990;7.866;2023-05-07T08:25:44;4.97;;;4.40;;
5022;SDS011;2530;47.990;7.866;2023-05-07T08:28:10;4.28;;;3.88;;
5022;SDS011;2530;47.990;7.866;2023-05-07T08:30:35;4.30;;;3.90;;
5022;SDS011;2530;47.990;7.866;2023-05-07T08:33:01;4.60;;;4.20;;
5022;SDS011;2530;47.990;7.866;2023-05-07T08:35:26;4.40;;;3.70;;
5022;SDS011;2530;47.990;7.866;2023-05-07T08:37:53;4.45;;;3.88;;
5022;SDS011;2530;47.990;7.866;2023-05-07T08:40:18;3.93;;;3.63;;
5022;SDS011;2530;47.990;7.866;2023-05-07T08:42:45;5.28;;;3.75;;
5022;SDS011;2530;47.990;7.866;2023-05-07T08:45:13;5.40;;;3.97;;
5022;SDS011;2530;47.990;7.866;2023-05-07T08:47:42;4.97;;;4.45;;
5022;SDS011;2530;47.990;7.866;2023-05-07T08:50:11;3.78;;;3.30;;
5022;SDS011;2530;47.990;7.866;2023-05-07T08:52:37;4.70;;;3.70;;
5022;SDS011;2530;47.990;7.866;2023-05-07T08:55:04;4.20;;;3.80;;
5022;SDS011;2530;47.990;7.866;2023-05-07T08:57:31;4.00;;;3.70;;
5022;SDS011;2530;47.990;7.866;2023-05-07T08:59:56;5.50;;;4.13;;
5022;SDS011;2530;47.990;7.866;2023-05-07T09:02:22;4.72;;;4.30;;
5022;SDS011;2530;47.990;7.866;2023-05-07T09:04:48;3.80;;;3.50;;
5022;SDS011;2530;47.990;7.866;2023-05-07T09:07:13;7.00;;;4.45;;
5022;SDS011;2530;47.990;7.866;2023-05-07T09:09:39;5.63;;;4.40;;
5022;SDS011;2530;47.990;7.866;2023-05-07T09:12:05;4.90;;;4.40;;
5022;SDS011;2530;47.990;7.866;2023-05-07T09:14:30;4.35;;;4.05;;
5022;SDS011;2530;47.990;7.866;2023-05-07T09:16:56;5.60;;;5.20;;
5022;SDS011;2530;47.990;7.866;2023-05-07T09:19:25;5.20;;;4.70;;
5022;SDS011;2530;47.990;7.866;2023-05-07T09:21:58;5.50;;;4.47;;
5022;SDS011;2530;47.990;7.866;2023-05-07T09:24:28;4.97;;;4.22;;
5022;SDS011;2530;47.990;7.866;2023-05-07T09:26:58;6.55;;;5.40;;
5022;SDS011;2530;47.990;7.866;2023-05-07T09:29:25;7.53;;;5.85;;
5022;SDS011;2530;47.990;7.866;2023-05-07T09:31:50;5.82;;;5.20;;
5022;SDS011;2530;47.990;7.866;2023-05-07T09:34:16;4.00;;;3.70;;
5022;SDS011;2530;47.990;7.866;2023-05-07T09:36:41;4.40;;;4.00;;
5022;SDS011;2530;47.990;7.866;2023-05-07T09:39:07;4.30;;;3.90;;
5022;SDS011;2530;47.990;7.866;2023-05-07T09:41:33;4.05;;;3.75;;
5022;SDS011;2530;47.990;7.866;2023-05-07T09:44:09;3.92;;;3.60;;
5022;SDS011;2530;47.990;7.866;2023-05-07T09:46:34;3.80;;;3.40;;
5022;SDS011;2530;47.990;7.866;2023-05-07T09:49:03;4.00;;;3.70;;
5022;SDS011;2530;47.990;7.866;2023-05-07T09:51:38;4.38;;;3.60;;
5022;SDS011;2530;47.990;7.866;2023-05-07T09:54:06;4.43;;;3.20;;
5022;SDS011;2530;47.990;7.866;2023-05-07T09:56:32;3.90;;;3.60;;
5022;SDS011;2530;47.990;7.866;2023-05-07T09:59:01;4.35;;;3.95;;
5022;SDS011;2530;47.990;7.866;2023-05-07T10:01:29;4.13;;;3.55;;
5022;SDS011;2530;47.990;7.866;2023-05-07T10:03:56;4.00;;;3.60;;
5022;SDS011;2530;47.990;7.866;2023-05-07T10:06:23;4.00;;;3.60;;
5022;SDS011;2530;47.990;7.866;2023-05-07T10:08:51;4.43;;;4.03;;
5022;SDS011;2530;47.990;7.866;2023-05-07T10:11:17;4.90;;;3.70;;
5022;SDS011;2530;47.990;7.866;2023-05-07T10:13:44;4.38;;;3.97;;
5022;SDS011;2530;47.990;7.866;2023-05-07T10:16:12;4.35;;;3.95;;
5022;SDS011;2530;47.990;7.866;2023-05-07T10:18:39;4.43;;;3.50;;
5022;SDS011;2530;47.990;7.866;2023-05-07T10:21:16;4.63;;;4.30;;
5022;SDS011;2530;47.990;7.866;2023-05-07T10:23:48;5.00;;;4.28;;
5022;SDS011;2530;47.990;7.866;2023-05-07T10:26:15;4.63;;;4.23;;
5022;SDS011;2530;47.990;7.866;2023-05-07T10:28:45;5.80;;;5.28;;
5022;SDS011;2530;47.990;7.866;2023-05-07T10:33:54;6.75;;;5.50;;
5022;SDS011;2530;47.990;7.866;2023-05-07T10:36:21;11.15;;;5.68;;
5022;SDS011;2530;47.990;7.866;2023-05-07T10:38:47;6.90;;;6.20;;
5022;SDS011;2530;47.990;7.866;2023-05-07T10:41:13;7.10;;;6.50;;
5022;SDS011;2530;47.990;7.866;2023-05-07T10:44:00;6.23;;;5.73;;
5022;SDS011;2530;47.990;7.866;2023-05-07T10:46:32;6.40;;;5.80;;
5022;SDS011;2530;47.990;7.866;2023-05-07T10:49:18;6.60;;;6.03;;
5022;SDS011;2530;47.990;7.866;2023-05-07T10:51:43;6.10;;;5.60;;
5022;SDS011;2530;47.990;7.866;2023-05-07T10:56:40;6.22;;;5.72;;
5022;SDS011;2530;47.990;7.866;2023-05-07T11:01:49;5.93;;;5.43;;
5022;SDS011;2530;47.990;7.866;2023-05-07T11:04:32;6.25;;;5.65;;
5022;SDS011;2530;47.990;7.866;2023-05-07T11:15:04;5.50;;;5.00;;
5022;SDS011;2530;47.990;7.866;2023-05-07T11:17:56;5.10;;;4.70;;
5022;SDS011;2530;47.990;7.866;2023-05-07T11:26:08;4.70;;;4.30;;
5022;SDS011;2530;47.990;7.866;2023-05-07T11:28:36;4.73;;;4.33;;
5022;SDS011;2530;47.990;7.866;2023-05-07T11:31:03;4.60;;;4.20;;
5022;SDS011;2530;47.990;7.866;2023-05-07T11:33:32;3.83;;;3.53;;
5022;SDS011;2530;47.990;7.866;2023-05-07T11:35:59;4.53;;;3.95;;
5022;SDS011;2530;47.990;7.866;2023-05-07T11:38:25;4.32;;;3.80;;
5022;SDS011;2530;47.990;7.866;2023-05-07T11:40:53;4.10;;;3.70;;
5022;SDS011;2530;47.990;7.866;2023-05-07T11:43:25;4.20;;;3.90;;
5022;SDS011;2530;47.990;7.866;2023-05-07T11:45:51;4.60;;;4.20;;
5022;SDS011;2530;47.990;7.866;2023-05-07T11:48:17;4.70;;;4.10;;
5022;SDS011;2530;47.990;7.866;2023-05-07T11:50:53;4.53;;;4.13;;
5022;SDS011;2530;47.990;7.866;2023-05-07T11:53:25;4.32;;;3.92;;
5022;SDS011;2530;47.990;7.866;2023-05-07T11:55:57;5.17;;;3.97;;
5022;SDS011;2530;47.990;7.866;2023-05-07T11:58:23;4.10;;;3.70;;
5022;SDS011;2530;47.990;7.866;2023-05-07T12:00:50;4.60;;;4.10;;
5022;SDS011;2530;47.990;7.866;2023-05-07T12:03:17;4.10;;;3.80;;
5022;SDS011;2530;47.990;7.866;2023-05-07T12:05:46;4.22;;;3.70;;
5022;SDS011;2530;47.990;7.866;2023-05-07T12:08:15;4.50;;;4.10;;
5022;SDS011;2530;47.990;7.866;2023-05-07T12:10:45;4.35;;;3.83;;
5022;SDS011;2530;47.990;7.866;2023-05-07T12:13:16;4.60;;;4.20;;
5022;SDS011;2530;47.990;7.866;2023-05-07T12:15:42;4.05;;;3.42;;
5022;SDS011;2530;47.990;7.866;2023-05-07T12:18:14;4.00;;;3.70;;
5022;SDS011;2530;47.990;7.866;2023-05-07T12:20:40;4.50;;;3.80;;
5022;SDS011;2530;47.990;7.866;2023-05-07T12:23:06;3.75;;;3.45;;
5022;SDS011;2530;47.990;7.866;2023-05-07T12:25:32;6.20;;;3.30;;
5022;SDS011;2530;47.990;7.866;2023-05-07T12:28:04;4.20;;;3.80;;
5022;SDS011;2530;47.990;7.866;2023-05-07T12:30:40;4.50;;;4.10;;
5022;SDS011;2530;47.990;7.866;2023-05-07T12:33:06;5.70;;;4.13;;
5022;SDS011;2530;47.990;7.866;2023-05-07T12:35:36;4.20;;;3.80;;
5022;SDS011;2530;47.990;7.866;2023-05-07T12:38:10;4.32;;;3.95;;
5022;SDS011;2530;47.990;7.866;2023-05-07T12:40:43;5.05;;;4.45;;
5022;SDS011;2530;47.990;7.866;2023-05-07T12:43:26;4.72;;;4.18;;
5022;SDS011;2530;47.990;7.866;2023-05-07T12:45:57;4.50;;;4.10;;
5022;SDS011;2530;47.990;7.866;2023-05-07T12:48:24;3.85;;;3.45;;
5022;SDS011;2530;47.990;7.866;2023-05-07T12:50:55;3.90;;;3.60;;
5022;SDS011;2530;47.990;7.866;2023-05-07T12:53:23;4.53;;;3.75;;
5022;SDS011;2530;47.990;7.866;2023-05-07T12:55:51;3.97;;;3.67;;
5022;SDS011;2530;47.990;7.866;2023-05-07T12:58:30;3.80;;;3.50;;
5022;SDS011;2530;47.990;7.866;2023-05-07T13:00:58;4.00;;;3.60;;
5022;SDS011;2530;47.990;7.866;2023-05-07T13:03:26;4.05;;;3.70;;
5022;SDS011;2530;47.990;7.866;2023-05-07T13:05:54;4.18;;;3.88;;
5022;SDS011;2530;47.990;7.866;2023-05-07T13:08:23;3.90;;;3.60;;
5022;SDS011;2530;47.990;7.866;2023-05-07T13:10:57;3.70;;;3.40;;
5022;SDS011;2530;47.990;7.866;2023-05-07T13:13:33;4.63;;;3.55;;
5022;SDS011;2530;47.990;7.866;2023-05-07T13:16:00;3.50;;;3.20;;
5022;SDS011;2530;47.990;7.866;2023-05-07T13:18:26;4.15;;;3.75;;
5022;SDS011;2530;47.990;7.866;2023-05-07T13:20:52;3.55;;;3.25;;
5022;SDS011;2530;47.990;7.866;2023-05-07T13:23:18;5.43;;;3.83;;
5022;SDS011;2530;47.990;7.866;2023-05-07T13:25:44;3.90;;;3.60;;
5022;SDS011;2530;47.990;7.866;2023-05-07T13:28:10;3.30;;;3.00;;
5022;SDS011;2530;47.990;7.866;2023-05-07T13:30:36;3.70;;;3.40;;
5022;SDS011;2530;47.990;7.866;2023-05-07T13:33:01;4.03;;;3.72;;
5022;SDS011;2530;47.990;7.866;2023-05-07T13:35:27;4.77;;;3.60;;
5022;SDS011;2530;47.990;7.866;2023-05-07T13:37:53;4.00;;;3.40;;
5022;SDS011;2530;47.990;7.866;2023-05-07T13:40:19;3.33;;;3.10;;
5022;SDS011;2530;47.990;7.866;2023-05-07T13:42:46;3.60;;;3.30;;
5022;SDS011;2530;47.990;7.866;2023-05-07T13:45:11;4.25;;;3.85;;
5022;SDS011;2530;47.990;7.866;2023-05-07T13:47:39;3.45;;;3.15;;
5022;SDS011;2530;47.990;7.866;2023-05-07T13:50:08;5.35;;;3.80;;
5022;SDS011;2530;47.990;7.866;2023-05-07T13:52:34;3.63;;;3.33;;
5022;SDS011;2530;47.990;7.866;2023-05-07T13:55:00;4.70;;;4.20;;
5022;SDS011;2530;47.990;7.866;2023-05-07T13:57:26;4.00;;;3.60;;
5022;SDS011;2530;47.990;7.866;2023-05-07T13:59:51;3.95;;;3.30;;
5022;SDS011;2530;47.990;7.866;2023-05-07T14:02:17;3.30;;;3.10;;
5022;SDS011;2530;47.990;7.866;2023-05-07T14:04:42;3.97;;;3.67;;
5022;SDS011;2530;47.990;7.866;2023-05-07T14:07:08;4.07;;;3.70;;
5022;SDS011;2530;47.990;7.866;2023-05-07T14:09:33;3.78;;;3.45;;
5022;SDS011;2530;47.990;7.866;2023-05-07T14:11:59;4.13;;;3.83;;
5022;SDS011;2530;47.990;7.866;2023-05-07T14:14:25;3.90;;;3.50;;
5022;SDS011;2530;47.990;7.866;2023-05-07T14:16:50;4.30;;;3.90;;
5022;SDS011;2530;47.990;7.866;2023-05-07T14:19:16;4.70;;;4.00;;
5022;SDS011;2530;47.990;7.866;2023-05-07T14:21:41;4.53;;;4.15;;
5022;SDS011;2530;47.990;7.866;2023-05-07T14:24:07;5.20;;;4.80;;
5022;SDS011;2530;47.990;7.866;2023-05-07T14:26:33;4.93;;;4.20;;
5022;SDS011;2530;47.990;7.866;2023-05-07T14:28:59;4.97;;;4.57;;
5022;SDS011;2530;47.990;7.866;2023-05-07T14:31:25;3.97;;;3.67;;
5022;SDS011;2530;47.990;7.866;2023-05-07T14:33:51;4.40;;;3.90;;
5022;SDS011;2530;47.990;7.866;2023-05-07T14:36:17;4.40;;;4.00;;
5022;SDS011;2530;47.990;7.866;2023-05-07T14:38:45;3.90;;;3.60;;
5022;SDS011;2530;47.990;7.866;2023-05-07T14:41:10;5.25;;;3.50;;
5022;SDS011;2530;47.990;7.866;2023-05-07T14:43:36;3.80;;;3.50;;
5022;SDS011;2530;47.990;7.866;2023-05-07T14:46:02;4.10;;;3.23;;
5022;SDS011;2530;47.990;7.866;2023-05-07T14:48:27;3.20;;;2.90;;
5022;SDS011;2530;47.990;7.866;2023-05-07T14:50:52;3.20;;;3.00;;
5022;SDS011;2530;47.990;7.866;2023-05-07T14:53:18;2.70;;;2.50;;
5022;SDS011;2530;47.990;7.866;2023-05-07T14:55:43;3.00;;;2.70;;
5022;SDS011;2530;47.990;7.866;2023-05-07T14:58:10;3.10;;;2.80;;
5022;SDS011;2530;47.990;7.866;2023-05-07T15:00:36;2.60;;;2.40;;
5022;SDS011;2530;47.990;7.866;2023-05-07T15:03:04;3.05;;;2.85;;
5022;SDS011;2530;47.990;7.866;2023-05-07T15:05:32;3.40;;;2.80;;
5022;SDS011;2530;47.990;7.866;2023-05-07T15:07:57;2.70;;;2.30;;
5022;SDS011;2530;47.990;7.866;2023-05-07T15:10:23;2.20;;;1.60;;
5022;SDS011;2530;47.990;7.866;2023-05-07T15:12:49;1.60;;;1.50;;
5022;SDS011;2530;47.990;7.866;2023-05-07T15:15:14;1.80;;;1.70;;
5022;SDS011;2530;47.990;7.866;2023-05-07T15:17:40;1.80;;;1.50;;
5022;SDS011;2530;47.990;7.866;2023-05-07T15:20:06;2.17;;;1.93;;
5022;SDS011;2530;47.990;7.866;2023-05-07T15:22:32;1.77;;;1.67;;
5022;SDS011;2530;47.990;7.866;2023-05-07T15:24:57;1.80;;;1.70;;
5022;SDS011;2530;47.990;7.866;2023-05-07T15:27:23;1.60;;;1.50;;
5022;SDS011;2530;47.990;7.866;2023-05-07T15:29:49;1.70;;;1.60;;
5022;SDS011;2530;47.990;7.866;2023-05-07T15:32:14;3.43;;;1.60;;
5022;SDS011;2530;47.990;7.866;2023-05-07T15:34:40;1.90;;;1.70;;